sensor_id;sensor_type;location;lat;lon;timestamp;P1;durP1;ratioP1;P2;durP2;ratioP2
82417;SDS011;72059;53.734;10.260;2023-12-20T00:02:17;18.60;;;2.65;;
82417;SDS011;72059;53.734;10.260;2023-12-20T00:04:45;11.28;;;2.25;;
82417;SDS011;72059;53.734;10.260;2023-12-20T00:07:12;14.20;;;2.15;;
82417;SDS011;72059;53.734;10.260;2023-12-20T00:09:40;21.35;;;2.75;;
82417;SDS011;72059;53.734;10.260;2023-12-20T00:12:07;9.15;;;2.17;;
82417;SDS011;72059;53.734;10.260;2023-12-20T00:14:35;18.67;;;3.00;;
82417;SDS011;72059;53.734;10.260;2023-12-20T00:17:02;22.30;;;3.37;;
82417;SDS011;72059;53.734;10.260;2023-12-20T00:19:30;13.83;;;2.95;;
82417;SDS011;72059;53.734;10.260;2023-12-20T00:21:57;15.85;;;3.12;;
82417;SDS011;72059;53.734;10.260;2023-12-20T00:24:25;16.25;;;2.90;;
82417;SDS011;72059;53.734;10.260;2023-12-20T00:26:52;14.40;;;3.12;;
82417;SDS011;72059;53.734;10.260;2023-12-20T00:29:20;13.48;;;3.27;;
82417;SDS011;72059;53.734;10.260;2023-12-20T00:31:47;7.15;;;2.62;;
82417;SDS011;72059;53.734;10.260;2023-12-20T00:34:15;13.00;;;2.77;;
82417;SDS011;72059;53.734;10.260;2023-12-20T00:36:42;12.45;;;2.98;;
82417;SDS011;72059;53.734;10.260;2023-12-20T00:39:10;10.18;;;3.25;;
82417;SDS011;72059;53.734;10.260;2023-12-20T00:41:37;13.15;;;3.20;;
82417;SDS011;72059;53.734;10.260;2023-12-20T00:44:04;14.58;;;3.15;;
82417;SDS011;72059;53.734;10.260;2023-12-20T00:46:32;9.85;;;2.60;;
82417;SDS011;72059;53.734;10.260;2023-12-20T00:48:59;12.07;;;2.42;;
82417;SDS011;72059;53.734;10.260;2023-12-20T00:51:27;9.30;;;3.17;;
82417;SDS011;72059;53.734;10.260;2023-12-20T00:53:54;13.00;;;2.35;;
82417;SDS011;72059;53.734;10.260;2023-12-20T00:56:21;10.03;;;2.15;;
82417;SDS011;72059;53.734;10.260;2023-12-20T00:58:49;12.10;;;2.35;;
82417;SDS011;72059;53.734;10.260;2023-12-20T01:01:17;14.30;;;2.75;;
82417;SDS011;72059;53.734;10.260;2023-12-20T01:03:44;20.12;;;2.55;;
82417;SDS011;72059;53.734;10.260;2023-12-20T01:06:12;12.73;;;2.08;;
82417;SDS011;72059;53.734;10.260;2023-12-20T01:08:39;12.82;;;2.05;;
82417;SDS011;72059;53.734;10.260;2023-12-20T01:11:07;11.10;;;2.17;;
82417;SDS011;72059;53.734;10.260;2023-12-20T01:13:34;17.00;;;2.30;;
82417;SDS011;72059;53.734;10.260;2023-12-20T01:16:02;14.85;;;2.30;;
82417;SDS011;72059;53.734;10.260;2023-12-20T01:18:30;26.20;;;3.25;;
82417;SDS011;72059;53.734;10.260;2023-12-20T01:21:01;14.30;;;2.25;;
82417;SDS011;72059;53.734;10.260;2023-12-20T01:23:29;14.83;;;2.70;;
82417;SDS011;72059;53.734;10.260;2023-12-20T01:25:57;18.00;;;3.22;;
82417;SDS011;72059;53.734;10.260;2023-12-20T01:28:25;15.70;;;3.33;;
82417;SDS011;72059;53.734;10.260;2023-12-20T01:30:52;18.25;;;2.75;;
82417;SDS011;72059;53.734;10.260;2023-12-20T01:33:20;10.95;;;3.02;;
82417;SDS011;72059;53.734;10.260;2023-12-20T01:35:47;12.98;;;2.15;;
82417;SDS011;72059;53.734;10.260;2023-12-20T01:38:15;23.25;;;2.17;;
82417;SDS011;72059;53.734;10.260;2023-12-20T01:40:44;14.73;;;2.58;;
82417;SDS011;72059;53.734;10.260;2023-12-20T01:43:12;19.70;;;2.62;;
82417;SDS011;72059;53.734;10.260;2023-12-20T01:45:39;12.98;;;2.37;;
82417;SDS011;72059;53.734;10.260;2023-12-20T01:48:07;9.05;;;1.90;;
82417;SDS011;72059;53.734;10.260;2023-12-20T01:50:36;11.60;;;1.85;;
82417;SDS011;72059;53.734;10.260;2023-12-20T01:53:05;8.20;;;1.87;;
82417;SDS011;72059;53.734;10.260;2023-12-20T01:55:35;15.75;;;2.22;;
82417;SDS011;72059;53.734;10.260;2023-12-20T01:58:05;20.50;;;2.47;;
82417;SDS011;72059;53.734;10.260;2023-12-20T02:00:33;18.10;;;2.40;;
82417;SDS011;72059;53.734;10.260;2023-12-20T02:03:01;21.55;;;2.35;;
82417;SDS011;72059;53.734;10.260;2023-12-20T02:05:30;20.43;;;3.27;;
82417;SDS011;72059;53.734;10.260;2023-12-20T02:07:57;22.05;;;3.72;;
82417;SDS011;72059;53.734;10.260;2023-12-20T02:10:24;17.95;;;2.45;;
82417;SDS011;72059;53.734;10.260;2023-12-20T02:12:52;24.25;;;2.70;;
82417;SDS011;72059;53.734;10.260;2023-12-20T02:15:20;22.00;;;2.50;;
82417;SDS011;72059;53.734;10.260;2023-12-20T02:17:47;19.82;;;2.67;;
82417;SDS011;72059;53.734;10.260;2023-12-20T02:20:15;18.37;;;2.35;;
82417;SDS011;72059;53.734;10.260;2023-12-20T02:22:43;22.37;;;2.50;;
82417;SDS011;72059;53.734;10.260;2023-12-20T02:25:10;26.15;;;3.45;;
82417;SDS011;72059;53.734;10.260;2023-12-20T02:27:38;20.68;;;2.80;;
82417;SDS011;72059;53.734;10.260;2023-12-20T02:30:06;13.53;;;2.85;;
82417;SDS011;72059;53.734;10.260;2023-12-20T02:32:33;21.90;;;4.10;;
82417;SDS011;72059;53.734;10.260;2023-12-20T02:35:01;28.23;;;4.22;;
82417;SDS011;72059;53.734;10.260;2023-12-20T02:37:28;21.60;;;3.72;;
82417;SDS011;72059;53.734;10.260;2023-12-20T02:39:56;23.02;;;3.55;;
82417;SDS011;72059;53.734;10.260;2023-12-20T02:42:23;28.83;;;5.05;;
82417;SDS011;72059;53.734;10.260;2023-12-20T02:44:50;13.72;;;3.20;;
82417;SDS011;72059;53.734;10.260;2023-12-20T02:47:18;21.52;;;3.90;;
82417;SDS011;72059;53.734;10.260;2023-12-20T02:49:45;15.55;;;3.70;;
82417;SDS011;72059;53.734;10.260;2023-12-20T02:52:13;19.92;;;4.00;;
82417;SDS011;72059;53.734;10.260;2023-12-20T02:54:40;18.85;;;3.62;;
82417;SDS011;72059;53.734;10.260;2023-12-20T02:57:07;18.73;;;4.00;;
82417;SDS011;72059;53.734;10.260;2023-12-20T02:59:35;16.77;;;3.08;;
82417;SDS011;72059;53.734;10.260;2023-12-20T03:02:02;20.52;;;3.45;;
82417;SDS011;72059;53.734;10.260;2023-12-20T03:04:30;14.15;;;2.65;;
82417;SDS011;72059;53.734;10.260;2023-12-20T03:06:57;16.35;;;2.58;;
82417;SDS011;72059;53.734;10.260;2023-12-20T03:09:24;14.68;;;2.30;;
82417;SDS011;72059;53.734;10.260;2023-12-20T03:11:52;13.43;;;2.45;;
82417;SDS011;72059;53.734;10.260;2023-12-20T03:14:19;14.58;;;2.30;;
82417;SDS011;72059;53.734;10.260;2023-12-20T03:16:48;18.77;;;3.45;;
82417;SDS011;72059;53.734;10.260;2023-12-20T03:19:17;13.38;;;3.30;;
82417;SDS011;72059;53.734;10.260;2023-12-20T03:21:47;14.73;;;1.98;;
82417;SDS011;72059;53.734;10.260;2023-12-20T03:24:14;11.55;;;1.85;;
82417;SDS011;72059;53.734;10.260;2023-12-20T03:26:42;12.33;;;2.25;;
82417;SDS011;72059;53.734;10.260;2023-12-20T03:29:09;22.40;;;3.12;;
82417;SDS011;72059;53.734;10.260;2023-12-20T03:31:37;10.95;;;3.42;;
82417;SDS011;72059;53.734;10.260;2023-12-20T03:34:04;18.98;;;3.98;;
82417;SDS011;72059;53.734;10.260;2023-12-20T03:36:31;12.18;;;3.22;;
82417;SDS011;72059;53.734;10.260;2023-12-20T03:38:59;18.48;;;3.95;;
82417;SDS011;72059;53.734;10.260;2023-12-20T03:41:26;20.05;;;3.95;;
82417;SDS011;72059;53.734;10.260;2023-12-20T03:43:54;23.55;;;4.03;;
82417;SDS011;72059;53.734;10.260;2023-12-20T03:46:21;25.08;;;4.72;;
82417;SDS011;72059;53.734;10.260;2023-12-20T03:48:48;16.05;;;3.90;;
82417;SDS011;72059;53.734;10.260;2023-12-20T03:51:16;22.85;;;3.60;;
82417;SDS011;72059;53.734;10.260;2023-12-20T03:53:43;19.67;;;2.70;;
82417;SDS011;72059;53.734;10.260;2023-12-20T03:56:11;13.78;;;3.75;;
82417;SDS011;72059;53.734;10.260;2023-12-20T03:58:38;14.18;;;2.77;;
82417;SDS011;72059;53.734;10.260;2023-12-20T04:01:11;14.38;;;2.70;;
82417;SDS011;72059;53.734;10.260;2023-12-20T04:03:39;9.83;;;2.22;;
82417;SDS011;72059;53.734;10.260;2023-12-20T04:06:06;17.00;;;2.83;;
82417;SDS011;72059;53.734;10.260;2023-12-20T04:08:34;13.58;;;2.30;;
82417;SDS011;72059;53.734;10.260;2023-12-20T04:11:01;16.12;;;2.65;;
82417;SDS011;72059;53.734;10.260;2023-12-20T04:13:28;17.73;;;2.67;;
82417;SDS011;72059;53.734;10.260;2023-12-20T04:15:56;20.20;;;2.80;;
82417;SDS011;72059;53.734;10.260;2023-12-20T04:18:23;20.85;;;3.30;;
82417;SDS011;72059;53.734;10.260;2023-12-20T04:20:51;17.75;;;2.55;;
82417;SDS011;72059;53.734;10.260;2023-12-20T04:23:18;13.10;;;2.45;;
82417;SDS011;72059;53.734;10.260;2023-12-20T04:25:45;13.60;;;2.40;;
82417;SDS011;72059;53.734;10.260;2023-12-20T04:28:13;9.85;;;2.37;;
82417;SDS011;72059;53.734;10.260;2023-12-20T04:30:41;21.45;;;3.05;;
82417;SDS011;72059;53.734;10.260;2023-12-20T04:33:08;13.83;;;2.67;;
82417;SDS011;72059;53.734;10.260;2023-12-20T04:35:36;18.05;;;2.42;;
82417;SDS011;72059;53.734;10.260;2023-12-20T04:38:03;15.70;;;3.10;;
82417;SDS011;72059;53.734;10.260;2023-12-20T04:40:30;11.65;;;2.40;;
82417;SDS011;72059;53.734;10.260;2023-12-20T04:42:58;17.15;;;2.92;;
82417;SDS011;72059;53.734;10.260;2023-12-20T04:45:25;17.82;;;2.90;;
82417;SDS011;72059;53.734;10.260;2023-12-20T04:47:53;16.55;;;2.83;;
82417;SDS011;72059;53.734;10.260;2023-12-20T04:50:21;22.62;;;3.42;;
82417;SDS011;72059;53.734;10.260;2023-12-20T04:52:48;17.67;;;2.70;;
82417;SDS011;72059;53.734;10.260;2023-12-20T04:55:16;14.68;;;2.58;;
82417;SDS011;72059;53.734;10.260;2023-12-20T04:57:43;14.47;;;3.15;;
82417;SDS011;72059;53.734;10.260;2023-12-20T05:00:11;22.20;;;3.55;;
82417;SDS011;72059;53.734;10.260;2023-12-20T05:02:41;15.63;;;3.02;;
82417;SDS011;72059;53.734;10.260;2023-12-20T05:05:08;16.52;;;2.80;;
82417;SDS011;72059;53.734;10.260;2023-12-20T05:07:36;18.52;;;3.10;;
82417;SDS011;72059;53.734;10.260;2023-12-20T05:10:03;17.82;;;3.80;;
82417;SDS011;72059;53.734;10.260;2023-12-20T05:12:31;21.45;;;3.42;;
82417;SDS011;72059;53.734;10.260;2023-12-20T05:14:58;21.52;;;3.00;;
82417;SDS011;72059;53.734;10.260;2023-12-20T05:17:26;14.68;;;2.90;;
82417;SDS011;72059;53.734;10.260;2023-12-20T05:19:53;15.13;;;3.00;;
82417;SDS011;72059;53.734;10.260;2023-12-20T05:22:20;16.02;;;3.05;;
82417;SDS011;72059;53.734;10.260;2023-12-20T05:24:48;17.98;;;2.80;;
82417;SDS011;72059;53.734;10.260;2023-12-20T05:27:15;11.90;;;2.27;;
82417;SDS011;72059;53.734;10.260;2023-12-20T05:29:43;17.98;;;3.10;;
82417;SDS011;72059;53.734;10.260;2023-12-20T05:32:10;16.70;;;2.87;;
82417;SDS011;72059;53.734;10.260;2023-12-20T05:34:38;9.73;;;2.22;;
82417;SDS011;72059;53.734;10.260;2023-12-20T05:37:05;14.07;;;2.05;;
82417;SDS011;72059;53.734;10.260;2023-12-20T05:39:32;14.33;;;2.95;;
82417;SDS011;72059;53.734;10.260;2023-12-20T05:42:00;19.50;;;3.22;;
82417;SDS011;72059;53.734;10.260;2023-12-20T05:44:27;12.58;;;2.55;;
82417;SDS011;72059;53.734;10.260;2023-12-20T05:46:55;18.62;;;3.72;;
82417;SDS011;72059;53.734;10.260;2023-12-20T05:49:22;10.55;;;2.45;;
82417;SDS011;72059;53.734;10.260;2023-12-20T05:51:49;13.35;;;3.58;;
82417;SDS011;72059;53.734;10.260;2023-12-20T05:54:17;15.08;;;2.90;;
82417;SDS011;72059;53.734;10.260;2023-12-20T05:56:44;13.95;;;3.02;;
82417;SDS011;72059;53.734;10.260;2023-12-20T05:59:12;15.10;;;2.87;;
82417;SDS011;72059;53.734;10.260;2023-12-20T06:01:39;12.18;;;2.70;;
82417;SDS011;72059;53.734;10.260;2023-12-20T06:04:07;15.58;;;2.75;;
82417;SDS011;72059;53.734;10.260;2023-12-20T06:06:34;12.93;;;2.62;;
82417;SDS011;72059;53.734;10.260;2023-12-20T06:09:03;11.90;;;2.70;;
82417;SDS011;72059;53.734;10.260;2023-12-20T06:11:30;10.45;;;2.50;;
82417;SDS011;72059;53.734;10.260;2023-12-20T06:13:58;9.80;;;2.25;;
82417;SDS011;72059;53.734;10.260;2023-12-20T06:16:25;14.75;;;2.60;;
82417;SDS011;72059;53.734;10.260;2023-12-20T06:18:53;15.70;;;3.10;;
82417;SDS011;72059;53.734;10.260;2023-12-20T06:21:20;15.98;;;3.00;;
82417;SDS011;72059;53.734;10.260;2023-12-20T06:23:47;17.82;;;2.92;;
82417;SDS011;72059;53.734;10.260;2023-12-20T06:26:15;11.05;;;2.25;;
82417;SDS011;72059;53.734;10.260;2023-12-20T06:28:42;13.15;;;2.35;;
82417;SDS011;72059;53.734;10.260;2023-12-20T06:31:10;16.25;;;2.65;;
82417;SDS011;72059;53.734;10.260;2023-12-20T06:33:37;13.72;;;2.00;;
82417;SDS011;72059;53.734;10.260;2023-12-20T06:36:06;10.10;;;2.33;;
82417;SDS011;72059;53.734;10.260;2023-12-20T06:38:34;15.08;;;2.30;;
82417;SDS011;72059;53.734;10.260;2023-12-20T06:41:01;16.30;;;3.02;;
82417;SDS011;72059;53.734;10.260;2023-12-20T06:43:29;16.27;;;2.95;;
82417;SDS011;72059;53.734;10.260;2023-12-20T06:45:58;19.57;;;3.08;;
82417;SDS011;72059;53.734;10.260;2023-12-20T06:48:26;21.75;;;3.50;;
82417;SDS011;72059;53.734;10.260;2023-12-20T06:50:54;19.48;;;3.00;;
82417;SDS011;72059;53.734;10.260;2023-12-20T06:53:22;19.48;;;3.87;;
82417;SDS011;72059;53.734;10.260;2023-12-20T06:55:49;23.60;;;4.00;;
82417;SDS011;72059;53.734;10.260;2023-12-20T06:58:16;14.15;;;2.98;;
82417;SDS011;72059;53.734;10.260;2023-12-20T07:00:44;17.05;;;3.15;;
82417;SDS011;72059;53.734;10.260;2023-12-20T07:03:11;19.98;;;3.42;;
82417;SDS011;72059;53.734;10.260;2023-12-20T07:05:39;18.30;;;3.00;;
82417;SDS011;72059;53.734;10.260;2023-12-20T07:08:06;20.10;;;3.42;;
82417;SDS011;72059;53.734;10.260;2023-12-20T07:10:33;26.02;;;3.83;;
82417;SDS011;72059;53.734;10.260;2023-12-20T07:13:01;14.93;;;2.50;;
82417;SDS011;72059;53.734;10.260;2023-12-20T07:15:28;17.77;;;3.58;;
82417;SDS011;72059;53.734;10.260;2023-12-20T07:17:56;17.50;;;3.33;;
82417;SDS011;72059;53.734;10.260;2023-12-20T07:20:25;14.28;;;2.62;;
82417;SDS011;72059;53.734;10.260;2023-12-20T07:22:52;19.00;;;3.62;;
82417;SDS011;72059;53.734;10.260;2023-12-20T07:25:20;18.37;;;3.40;;
82417;SDS011;72059;53.734;10.260;2023-12-20T07:27:47;17.32;;;3.22;;
82417;SDS011;72059;53.734;10.260;2023-12-20T07:30:14;20.25;;;3.05;;
82417;SDS011;72059;53.734;10.260;2023-12-20T07:32:42;16.57;;;3.35;;
82417;SDS011;72059;53.734;10.260;2023-12-20T07:35:09;22.65;;;3.52;;
82417;SDS011;72059;53.734;10.260;2023-12-20T07:37:37;21.62;;;3.52;;
82417;SDS011;72059;53.734;10.260;2023-12-20T07:40:04;15.08;;;2.83;;
82417;SDS011;72059;53.734;10.260;2023-12-20T07:42:32;12.35;;;2.75;;
82417;SDS011;72059;53.734;10.260;2023-12-20T07:45:00;19.45;;;3.27;;
82417;SDS011;72059;53.734;10.260;2023-12-20T07:47:27;20.35;;;3.12;;
82417;SDS011;72059;53.734;10.260;2023-12-20T07:49:55;24.55;;;3.98;;
82417;SDS011;72059;53.734;10.260;2023-12-20T07:52:22;17.70;;;3.67;;
82417;SDS011;72059;53.734;10.260;2023-12-20T07:54:51;18.60;;;4.05;;
82417;SDS011;72059;53.734;10.260;2023-12-20T07:57:19;18.92;;;4.08;;
82417;SDS011;72059;53.734;10.260;2023-12-20T07:59:46;19.52;;;3.70;;
82417;SDS011;72059;53.734;10.260;2023-12-20T08:02:13;18.67;;;3.40;;
82417;SDS011;72059;53.734;10.260;2023-12-20T08:04:41;17.90;;;4.37;;
82417;SDS011;72059;53.734;10.260;2023-12-20T08:07:08;12.70;;;3.27;;
82417;SDS011;72059;53.734;10.260;2023-12-20T08:09:36;23.25;;;3.75;;
82417;SDS011;72059;53.734;10.260;2023-12-20T08:12:03;22.10;;;4.22;;
82417;SDS011;72059;53.734;10.260;2023-12-20T08:14:31;20.88;;;3.58;;
82417;SDS011;72059;53.734;10.260;2023-12-20T08:16:58;15.23;;;3.35;;
82417;SDS011;72059;53.734;10.260;2023-12-20T08:19:26;16.90;;;3.05;;
82417;SDS011;72059;53.734;10.260;2023-12-20T08:21:53;16.50;;;3.75;;
82417;SDS011;72059;53.734;10.260;2023-12-20T08:24:21;16.25;;;3.85;;
82417;SDS011;72059;53.734;10.260;2023-12-20T08:26:48;16.40;;;3.37;;
82417;SDS011;72059;53.734;10.260;2023-12-20T08:29:15;22.93;;;3.45;;
82417;SDS011;72059;53.734;10.260;2023-12-20T08:31:43;14.50;;;2.87;;
82417;SDS011;72059;53.734;10.260;2023-12-20T08:34:12;22.20;;;3.60;;
82417;SDS011;72059;53.734;10.260;2023-12-20T08:36:40;15.53;;;2.95;;
82417;SDS011;72059;53.734;10.260;2023-12-20T08:39:07;22.85;;;3.25;;
82417;SDS011;72059;53.734;10.260;2023-12-20T08:41:35;18.10;;;3.15;;
82417;SDS011;72059;53.734;10.260;2023-12-20T08:44:02;21.10;;;4.42;;
82417;SDS011;72059;53.734;10.260;2023-12-20T08:46:30;14.63;;;3.10;;
82417;SDS011;72059;53.734;10.260;2023-12-20T08:48:57;7.42;;;2.40;;
82417;SDS011;72059;53.734;10.260;2023-12-20T08:51:26;13.78;;;3.30;;
82417;SDS011;72059;53.734;10.260;2023-12-20T08:53:53;11.03;;;3.05;;
82417;SDS011;72059;53.734;10.260;2023-12-20T08:56:21;18.77;;;3.52;;
82417;SDS011;72059;53.734;10.260;2023-12-20T08:58:48;14.83;;;2.98;;
82417;SDS011;72059;53.734;10.260;2023-12-20T09:01:16;18.98;;;3.25;;
82417;SDS011;72059;53.734;10.260;2023-12-20T09:03:43;18.77;;;3.00;;
82417;SDS011;72059;53.734;10.260;2023-12-20T09:06:10;15.13;;;3.33;;
82417;SDS011;72059;53.734;10.260;2023-12-20T09:08:38;18.98;;;3.25;;
82417;SDS011;72059;53.734;10.260;2023-12-20T09:11:05;18.75;;;3.40;;
82417;SDS011;72059;53.734;10.260;2023-12-20T09:13:33;16.50;;;3.22;;
82417;SDS011;72059;53.734;10.260;2023-12-20T09:16:00;12.75;;;2.42;;
82417;SDS011;72059;53.734;10.260;2023-12-20T09:18:29;17.82;;;2.60;;
82417;SDS011;72059;53.734;10.260;2023-12-20T09:20:56;9.95;;;2.35;;
82417;SDS011;72059;53.734;10.260;2023-12-20T09:23:24;10.70;;;1.75;;
82417;SDS011;72059;53.734;10.260;2023-12-20T09:25:51;10.60;;;2.00;;
82417;SDS011;72059;53.734;10.260;2023-12-20T09:28:19;4.92;;;1.42;;
82417;SDS011;72059;53.734;10.260;2023-12-20T09:30:47;6.05;;;1.65;;
82417;SDS011;72059;53.734;10.260;2023-12-20T09:33:14;7.85;;;1.27;;
82417;SDS011;72059;53.734;10.260;2023-12-20T09:35:42;6.30;;;1.60;;
82417;SDS011;72059;53.734;10.260;2023-12-20T09:38:09;3.42;;;1.35;;
82417;SDS011;72059;53.734;10.260;2023-12-20T09:40:38;6.75;;;1.40;;
82417;SDS011;72059;53.734;10.260;2023-12-20T09:43:10;4.58;;;1.17;;
82417;SDS011;72059;53.734;10.260;2023-12-20T09:45:38;3.90;;;0.80;;
82417;SDS011;72059;53.734;10.260;2023-12-20T09:48:08;4.65;;;1.20;;
82417;SDS011;72059;53.734;10.260;2023-12-20T09:50:37;6.00;;;1.82;;
82417;SDS011;72059;53.734;10.260;2023-12-20T09:53:05;3.70;;;0.98;;
82417;SDS011;72059;53.734;10.260;2023-12-20T09:55:35;3.58;;;0.60;;
82417;SDS011;72059;53.734;10.260;2023-12-20T09:58:04;2.02;;;0.93;;
82417;SDS011;72059;53.734;10.260;2023-12-20T10:00:33;2.25;;;0.78;;
82417;SDS011;72059;53.734;10.260;2023-12-20T10:03:02;6.55;;;1.22;;
82417;SDS011;72059;53.734;10.260;2023-12-20T10:05:33;4.35;;;0.75;;
82417;SDS011;72059;53.734;10.260;2023-12-20T10:08:01;2.67;;;0.70;;
82417;SDS011;72059;53.734;10.260;2023-12-20T10:10:29;5.15;;;0.82;;
82417;SDS011;72059;53.734;10.260;2023-12-20T10:13:03;2.87;;;0.75;;
82417;SDS011;72059;53.734;10.260;2023-12-20T10:15:33;4.53;;;0.80;;
82417;SDS011;72059;53.734;10.260;2023-12-20T10:18:01;6.47;;;0.75;;
82417;SDS011;72059;53.734;10.260;2023-12-20T10:20:30;3.77;;;0.50;;
82417;SDS011;72059;53.734;10.260;2023-12-20T10:22:58;3.98;;;0.80;;
82417;SDS011;72059;53.734;10.260;2023-12-20T10:25:26;3.70;;;0.93;;
82417;SDS011;72059;53.734;10.260;2023-12-20T10:28:09;4.72;;;0.70;;
82417;SDS011;72059;53.734;10.260;2023-12-20T10:30:38;3.45;;;0.98;;
82417;SDS011;72059;53.734;10.260;2023-12-20T10:33:06;5.35;;;1.05;;
82417;SDS011;72059;53.734;10.260;2023-12-20T10:35:34;6.35;;;0.98;;
82417;SDS011;72059;53.734;10.260;2023-12-20T10:38:04;3.02;;;0.80;;
82417;SDS011;72059;53.734;10.260;2023-12-20T10:40:34;4.83;;;1.12;;
82417;SDS011;72059;53.734;10.260;2023-12-20T10:43:04;4.65;;;1.05;;
82417;SDS011;72059;53.734;10.260;2023-12-20T10:45:32;4.53;;;0.60;;
82417;SDS011;72059;53.734;10.260;2023-12-20T10:48:00;9.75;;;1.67;;
82417;SDS011;72059;53.734;10.260;2023-12-20T10:50:29;5.83;;;1.42;;
82417;SDS011;72059;53.734;10.260;2023-12-20T10:52:57;7.22;;;1.20;;
82417;SDS011;72059;53.734;10.260;2023-12-20T10:55:25;4.62;;;1.02;;
82417;SDS011;72059;53.734;10.260;2023-12-20T10:58:02;7.80;;;1.10;;
82417;SDS011;72059;53.734;10.260;2023-12-20T11:00:40;6.87;;;1.92;;
82417;SDS011;72059;53.734;10.260;2023-12-20T11:03:11;10.63;;;1.87;;
82417;SDS011;72059;53.734;10.260;2023-12-20T11:05:53;6.22;;;1.77;;
82417;SDS011;72059;53.734;10.260;2023-12-20T11:10:59;5.95;;;1.00;;
82417;SDS011;72059;53.734;10.260;2023-12-20T11:13:54;6.50;;;1.02;;
82417;SDS011;72059;53.734;10.260;2023-12-20T11:16:10;3.87;;;0.80;;
82417;SDS011;72059;53.734;10.260;2023-12-20T11:18:38;5.72;;;1.22;;
82417;SDS011;72059;53.734;10.260;2023-12-20T11:21:07;12.13;;;1.32;;
82417;SDS011;72059;53.734;10.260;2023-12-20T11:23:37;6.55;;;1.25;;
82417;SDS011;72059;53.734;10.260;2023-12-20T11:26:04;6.03;;;1.67;;
82417;SDS011;72059;53.734;10.260;2023-12-20T11:28:33;10.55;;;1.55;;
82417;SDS011;72059;53.734;10.260;2023-12-20T11:31:00;6.30;;;1.32;;
82417;SDS011;72059;53.734;10.260;2023-12-20T11:33:35;6.30;;;1.20;;
82417;SDS011;72059;53.734;10.260;2023-12-20T11:36:03;7.17;;;1.05;;
82417;SDS011;72059;53.734;10.260;2023-12-20T11:38:53;12.57;;;1.40;;
82417;SDS011;72059;53.734;10.260;2023-12-20T11:41:17;6.17;;;1.30;;
82417;SDS011;72059;53.734;10.260;2023-12-20T11:43:44;4.20;;;1.55;;
82417;SDS011;72059;53.734;10.260;2023-12-20T11:46:12;10.43;;;1.35;;
82417;SDS011;72059;53.734;10.260;2023-12-20T11:48:39;9.43;;;1.47;;
82417;SDS011;72059;53.734;10.260;2023-12-20T11:51:10;9.35;;;1.30;;
82417;SDS011;72059;53.734;10.260;2023-12-20T11:53:39;10.45;;;1.95;;
82417;SDS011;72059;53.734;10.260;2023-12-20T11:56:08;15.43;;;1.75;;
82417;SDS011;72059;53.734;10.260;2023-12-20T11:58:36;13.38;;;1.67;;
82417;SDS011;72059;53.734;10.260;2023-12-20T12:01:04;10.30;;;1.98;;
82417;SDS011;72059;53.734;10.260;2023-12-20T12:03:33;14.50;;;2.40;;
82417;SDS011;72059;53.734;10.260;2023-12-20T12:06:01;12.88;;;2.22;;
82417;SDS011;72059;53.734;10.260;2023-12-20T12:08:30;16.20;;;2.83;;
82417;SDS011;72059;53.734;10.260;2023-12-20T12:10:57;11.18;;;2.95;;
82417;SDS011;72059;53.734;10.260;2023-12-20T12:13:24;11.97;;;2.77;;
82417;SDS011;72059;53.734;10.260;2023-12-20T12:15:53;17.02;;;2.30;;
82417;SDS011;72059;53.734;10.260;2023-12-20T12:18:21;16.57;;;2.72;;
82417;SDS011;72059;53.734;10.260;2023-12-20T12:20:48;15.15;;;2.45;;
82417;SDS011;72059;53.734;10.260;2023-12-20T12:23:22;12.35;;;1.98;;
82417;SDS011;72059;53.734;10.260;2023-12-20T12:25:46;13.65;;;2.47;;
82417;SDS011;72059;53.734;10.260;2023-12-20T12:28:14;11.83;;;2.58;;
82417;SDS011;72059;53.734;10.260;2023-12-20T12:30:42;12.88;;;2.50;;
82417;SDS011;72059;53.734;10.260;2023-12-20T12:33:09;14.30;;;2.62;;
82417;SDS011;72059;53.734;10.260;2023-12-20T12:35:37;18.62;;;2.45;;
82417;SDS011;72059;53.734;10.260;2023-12-20T12:38:06;21.52;;;3.10;;
82417;SDS011;72059;53.734;10.260;2023-12-20T12:40:34;21.40;;;3.87;;
82417;SDS011;72059;53.734;10.260;2023-12-20T12:43:02;21.05;;;3.35;;
82417;SDS011;72059;53.734;10.260;2023-12-20T12:45:29;24.92;;;3.45;;
82417;SDS011;72059;53.734;10.260;2023-12-20T12:47:58;21.40;;;3.02;;
82417;SDS011;72059;53.734;10.260;2023-12-20T12:50:25;17.50;;;3.45;;
82417;SDS011;72059;53.734;10.260;2023-12-20T12:52:54;25.85;;;3.40;;
82417;SDS011;72059;53.734;10.260;2023-12-20T12:55:21;23.73;;;4.42;;
82417;SDS011;72059;53.734;10.260;2023-12-20T12:57:49;18.27;;;3.67;;
82417;SDS011;72059;53.734;10.260;2023-12-20T13:00:16;24.67;;;3.67;;
82417;SDS011;72059;53.734;10.260;2023-12-20T13:02:45;25.82;;;4.17;;
82417;SDS011;72059;53.734;10.260;2023-12-20T13:05:12;20.95;;;3.90;;
82417;SDS011;72059;53.734;10.260;2023-12-20T13:07:39;17.50;;;3.90;;
82417;SDS011;72059;53.734;10.260;2023-12-20T13:10:09;29.55;;;5.58;;
82417;SDS011;72059;53.734;10.260;2023-12-20T13:12:36;22.75;;;4.17;;
82417;SDS011;72059;53.734;10.260;2023-12-20T13:15:03;17.73;;;4.00;;
82417;SDS011;72059;53.734;10.260;2023-12-20T13:17:31;23.12;;;5.15;;
82417;SDS011;72059;53.734;10.260;2023-12-20T13:19:58;16.52;;;3.83;;
82417;SDS011;72059;53.734;10.260;2023-12-20T13:22:26;18.90;;;4.05;;
82417;SDS011;72059;53.734;10.260;2023-12-20T13:24:53;22.87;;;4.40;;
82417;SDS011;72059;53.734;10.260;2023-12-20T13:27:21;17.77;;;3.65;;
82417;SDS011;72059;53.734;10.260;2023-12-20T13:29:48;28.65;;;4.85;;
82417;SDS011;72059;53.734;10.260;2023-12-20T13:32:15;16.30;;;3.58;;
82417;SDS011;72059;53.734;10.260;2023-12-20T13:34:44;22.32;;;3.72;;
82417;SDS011;72059;53.734;10.260;2023-12-20T13:37:13;23.45;;;4.97;;
82417;SDS011;72059;53.734;10.260;2023-12-20T13:39:40;24.27;;;4.35;;
82417;SDS011;72059;53.734;10.260;2023-12-20T13:42:08;20.82;;;4.50;;
82417;SDS011;72059;53.734;10.260;2023-12-20T13:44:35;22.37;;;4.30;;
82417;SDS011;72059;53.734;10.260;2023-12-20T13:47:02;16.20;;;3.08;;
82417;SDS011;72059;53.734;10.260;2023-12-20T13:49:30;16.67;;;3.47;;
82417;SDS011;72059;53.734;10.260;2023-12-20T13:51:57;19.85;;;4.67;;
82417;SDS011;72059;53.734;10.260;2023-12-20T13:54:25;21.93;;;4.60;;
82417;SDS011;72059;53.734;10.260;2023-12-20T13:56:53;17.45;;;3.98;;
82417;SDS011;72059;53.734;10.260;2023-12-20T13:59:20;25.77;;;4.35;;
82417;SDS011;72059;53.734;10.260;2023-12-20T14:01:47;18.50;;;3.85;;
82417;SDS011;72059;53.734;10.260;2023-12-20T14:04:15;26.48;;;4.47;;
82417;SDS011;72059;53.734;10.260;2023-12-20T14:06:43;27.40;;;5.03;;
82417;SDS011;72059;53.734;10.260;2023-12-20T14:09:10;18.98;;;4.87;;
82417;SDS011;72059;53.734;10.260;2023-12-20T14:11:38;25.50;;;5.28;;
82417;SDS011;72059;53.734;10.260;2023-12-20T14:14:07;17.67;;;4.15;;
82417;SDS011;72059;53.734;10.260;2023-12-20T14:16:34;21.45;;;4.87;;
82417;SDS011;72059;53.734;10.260;2023-12-20T14:19:03;27.87;;;6.12;;
82417;SDS011;72059;53.734;10.260;2023-12-20T14:21:33;21.40;;;5.17;;
82417;SDS011;72059;53.734;10.260;2023-12-20T14:24:00;23.42;;;5.62;;
82417;SDS011;72059;53.734;10.260;2023-12-20T14:26:29;16.27;;;4.30;;
82417;SDS011;72059;53.734;10.260;2023-12-20T14:28:57;24.35;;;4.85;;
82417;SDS011;72059;53.734;10.260;2023-12-20T14:31:24;17.05;;;4.42;;